Time;durP1;ratioP1;P1;durP2;ratioP2;P2;SDS_P1;SDS_P2;PMS_P1;PMS_P2;Temp;Humidity;BMP_temperature;BMP_pressure;BME280_temperature;BME280_humidity;BME280_pressure;Samples;Min_cycle;Max_cycle;Signal;HPM_P1;HPM_P2
2022/03/16 00:01:46;;;;;;;;;;;5.60;99.90;;;;;;5104826;28;19920;-72
2022/03/16 00:04:14;;;;;;;;;;;5.70;99.90;;;;;;5087618;28;20123;-70
2022/03/16 00:06:41;;;;;;;;;;;5.70;99.90;;;;;;5083483;28;19920;-71
2022/03/16 00:09:07;;;;;;;;;;;5.70;99.90;;;;;;5083946;28;20115;-72
2022/03/16 00:11:34;;;;;;;;;;;5.70;99.90;;;;;;5095413;28;20092;-72
2022/03/16 00:14:00;;;;;;;;;;;5.70;99.90;;;;;;5103914;28;19942;-71
2022/03/16 00:16:27;;;;;;;;;;;5.70;99.90;;;;;;5104760;28;19932;-71
2022/03/16 00:18:54;;;;;;;;;;;5.70;99.90;;;;;;5109436;28;20223;-72
2022/03/16 00:21:21;;;;;;;;;;;5.70;99.90;;;;;;5114256;28;19920;-73
2022/03/16 00:23:48;;;;;;;;;;;5.80;99.90;;;;;;5115632;28;19924;-71
2022/03/16 00:26:15;;;;;;;;;;;5.80;99.90;;;;;;5115495;28;19923;-72
2022/03/16 00:28:41;;;;;;;;;;;5.70;99.90;;;;;;5124350;28;19932;-71
2022/03/16 00:31:08;;;;;;;;;;;5.70;99.90;;;;;;5124491;28;19919;-70
2022/03/16 00:33:35;;;;;;;;;;;5.70;99.90;;;;;;5116023;28;19920;-74
2022/03/16 00:36:01;;;;;;;;;;;5.70;99.90;;;;;;5119473;28;19920;-72
2022/03/16 00:38:29;;;;;;;;;;;5.70;99.90;;;;;;5105503;28;19920;-71
2022/03/16 00:40:56;;;;;;;;;;;5.70;99.90;;;;;;5115478;28;19920;-72
2022/03/16 00:43:23;;;;;;;;;;;5.70;99.90;;;;;;5114605;28;19994;-72
2022/03/16 00:45:49;;;;;;;;;;;5.70;99.90;;;;;;5109040;28;19927;-72
2022/03/16 00:48:16;;;;;;;;;;;5.70;99.90;;;;;;5103258;28;19924;-72
2022/03/16 00:50:42;;;;;;;;;;;5.60;99.90;;;;;;5104032;28;19978;-71
2022/03/16 00:53:09;;;;;;;;;;;5.70;99.90;;;;;;5103295;28;19924;-72
2022/03/16 00:55:37;;;;;;;;;;;5.70;99.90;;;;;;5102931;28;19920;-71
2022/03/16 00:58:03;;;;;;;;;;;5.70;99.90;;;;;;5103644;28;19920;-72
2022/03/16 01:00:30;;;;;;;;;;;5.70;99.90;;;;;;5115076;28;19932;-72
2022/03/16 01:02:56;;;;;;;;;;;5.70;99.90;;;;;;5122539;28;20223;-71
2022/03/16 01:05:23;;;;;;;;;;;5.60;99.90;;;;;;5094074;28;20216;-73
2022/03/16 01:07:50;;;;;;;;;;;5.60;99.90;;;;;;5083055;28;19920;-72
2022/03/16 01:10:16;;;;;;;;;;;5.60;99.90;;;;;;5088953;28;19926;-72
2022/03/16 01:12:44;;;;;;;;;;;5.60;99.90;;;;;;5103700;28;19927;-71
2022/03/16 01:15:11;;;;;;;;;;;5.70;99.90;;;;;;5103077;28;20211;-72
2022/03/16 01:17:37;;;;;;;;;;;5.70;99.90;;;;;;5103116;28;19984;-72
2022/03/16 01:20:05;;;;;;;;;;;5.70;99.90;;;;;;5084105;28;20097;-71
2022/03/16 01:22:31;;;;;;;;;;;5.70;99.90;;;;;;5083625;28;19927;-72
2022/03/16 01:24:58;;;;;;;;;;;5.70;99.90;;;;;;5113948;28;19927;-72
2022/03/16 01:27:24;;;;;;;;;;;5.70;99.90;;;;;;5123108;28;19927;-72
2022/03/16 01:29:52;;;;;;;;;;;5.60;99.90;;;;;;5123460;28;20211;-71
2022/03/16 01:32:20;;;;;;;;;;;5.70;99.90;;;;;;5110810;28;20133;-72
2022/03/16 01:34:46;;;;;;;;;;;5.70;99.90;;;;;;5093489;28;20119;-72
2022/03/16 01:37:13;;;;;;;;;;;5.70;99.90;;;;;;5102653;28;19986;-71
2022/03/16 01:39:39;;;;;;;;;;;5.70;99.90;;;;;;5103160;28;19920;-72
2022/03/16 01:42:06;;;;;;;;;;;5.70;99.90;;;;;;5103176;28;19920;-71
2022/03/16 01:44:43;;;;;;;;;;;5.70;99.90;;;;;;5102457;28;20233;-71
2022/03/16 01:47:11;;;;;;;;;;;5.70;99.90;;;;;;5102328;28;19920;-71
2022/03/16 01:49:37;;;;;;;;;;;5.70;99.90;;;;;;5102746;28;19928;-71
2022/03/16 01:52:04;;;;;;;;;;;5.70;99.90;;;;;;5102840;28;19986;-71
2022/03/16 01:54:31;;;;;;;;;;;5.70;99.90;;;;;;5102645;28;19927;-72
2022/03/16 01:56:57;;;;;;;;;;;5.70;99.90;;;;;;5102269;28;20212;-72
2022/03/16 01:59:24;;;;;;;;;;;5.70;99.90;;;;;;5088904;28;19920;-71
2022/03/16 02:01:50;;;;;;;;;;;5.70;99.90;;;;;;5086826;28;19920;-72
2022/03/16 02:04:18;;;;;;;;;;;5.70;99.90;;;;;;5086188;28;19927;-72
2022/03/16 02:06:45;;;;;;;;;;;5.70;99.90;;;;;;5085903;28;19935;-72
2022/03/16 02:09:12;;;;;;;;;;;5.80;99.90;;;;;;5086257;28;19920;-72
2022/03/16 02:11:39;;;;;;;;;;;5.80;99.90;;;;;;5100908;28;19928;-71
2022/03/16 02:14:05;;;;;;;;;;;5.70;99.90;;;;;;5105847;28;20199;-71
2022/03/16 02:16:33;;;;;;;;;;;5.70;99.90;;;;;;5103698;28;19962;-71
2022/03/16 02:19:00;;;;;;;;;;;5.70;99.90;;;;;;5115804;28;19927;-71
2022/03/16 02:21:28;;;;;;;;;;;5.80;99.90;;;;;;5108914;28;19924;-71
2022/03/16 02:23:56;;;;;;;;;;;5.70;99.90;;;;;;5110636;28;19920;-71
2022/03/16 02:26:25;;;;;;;;;;;5.70;99.90;;;;;;5085946;28;20238;-71
2022/03/16 02:28:52;;;;;;;;;;;5.70;99.90;;;;;;5085517;28;19940;-72
2022/03/16 02:31:18;;;;;;;;;;;5.70;99.90;;;;;;5090965;28;19930;-72
2022/03/16 02:33:45;;;;;;;;;;;5.70;99.90;;;;;;5102200;28;19920;-71
2022/03/16 02:36:12;;;;;;;;;;;5.70;99.90;;;;;;5112746;28;19920;-71
2022/03/16 02:38:38;;;;;;;;;;;5.70;99.90;;;;;;5113587;28;19920;-71
2022/03/16 02:41:06;;;;;;;;;;;5.70;99.90;;;;;;5106416;28;19924;-71
2022/03/16 02:43:33;;;;;;;;;;;5.60;99.90;;;;;;5105697;28;20123;-71
2022/03/16 02:46:00;;;;;;;;;;;5.60;99.90;;;;;;5105090;28;19923;-71
2022/03/16 02:48:26;;;;;;;;;;;5.70;99.90;;;;;;5114761;28;19927;-71
2022/03/16 02:50:53;;;;;;;;;;;5.60;99.90;;;;;;5105838;28;19924;-71
2022/03/16 02:53:19;;;;;;;;;;;5.60;99.90;;;;;;5106018;28;19926;-71
2022/03/16 02:55:47;;;;;;;;;;;5.70;99.90;;;;;;5101682;28;19920;-71
2022/03/16 02:58:15;;;;;;;;;;;5.70;99.90;;;;;;5105697;28;19927;-71
2022/03/16 03:00:42;;;;;;;;;;;5.70;99.90;;;;;;5114194;28;19920;-72
2022/03/16 03:03:09;;;;;;;;;;;5.70;99.90;;;;;;5122892;28;19923;-72
2022/03/16 03:05:35;;;;;;;;;;;5.70;99.90;;;;;;5111044;28;19926;-71
2022/03/16 03:08:02;;;;;;;;;;;5.70;99.90;;;;;;5105427;28;19928;-71
2022/03/16 03:10:29;;;;;;;;;;;5.60;99.90;;;;;;5105015;28;19920;-71
2022/03/16 03:12:55;;;;;;;;;;;5.70;99.90;;;;;;5105417;28;19920;-72
2022/03/16 03:15:23;;;;;;;;;;;5.70;99.90;;;;;;5103831;28;19935;-72
2022/03/16 03:17:50;;;;;;;;;;;5.80;99.90;;;;;;5119110;28;19926;-71
2022/03/16 03:20:16;;;;;;;;;;;5.80;99.90;;;;;;5107474;28;19920;-72
2022/03/16 03:22:43;;;;;;;;;;;5.70;99.90;;;;;;5105122;28;19926;-71
2022/03/16 03:25:10;;;;;;;;;;;5.70;99.90;;;;;;5104201;28;19920;-71
2022/03/16 03:27:37;;;;;;;;;;;5.70;99.90;;;;;;5104540;28;19942;-72
2022/03/16 03:30:04;;;;;;;;;;;5.70;99.90;;;;;;5105210;28;19920;-72
2022/03/16 03:32:33;;;;;;;;;;;5.70;99.90;;;;;;5102355;28;19959;-72
2022/03/16 03:34:59;;;;;;;;;;;5.70;99.90;;;;;;5097282;28;19939;-71
2022/03/16 03:37:28;;;;;;;;;;;5.60;99.90;;;;;;5084133;28;19925;-71
2022/03/16 03:39:54;;;;;;;;;;;5.60;99.90;;;;;;5084714;28;19920;-71
2022/03/16 03:42:21;;;;;;;;;;;5.60;99.90;;;;;;5084549;28;19928;-71
2022/03/16 03:44:48;;;;;;;;;;;5.60;99.90;;;;;;5094125;28;19931;-71
2022/03/16 03:47:14;;;;;;;;;;;5.60;99.90;;;;;;5083746;28;19920;-71
2022/03/16 03:49:42;;;;;;;;;;;5.60;99.90;;;;;;5084321;28;19924;-71
2022/03/16 03:52:09;;;;;;;;;;;5.60;99.90;;;;;;5084419;28;19924;-71
2022/03/16 03:54:36;;;;;;;;;;;5.70;99.90;;;;;;5095548;28;19942;-71
2022/03/16 03:57:03;;;;;;;;;;;5.70;99.90;;;;;;5083516;28;19928;-71
2022/03/16 03:59:29;;;;;;;;;;;5.70;99.90;;;;;;5084496;28;19920;-72
2022/03/16 04:01:56;;;;;;;;;;;5.70;99.90;;;;;;5084257;28;19920;-71
2022/03/16 04:04:23;;;;;;;;;;;5.60;99.90;;;;;;5094668;28;19920;-71
2022/03/16 04:06:50;;;;;;;;;;;5.60;99.90;;;;;;5104127;28;19926;-71
2022/03/16 04:09:17;;;;;;;;;;;5.60;99.90;;;;;;5104502;28;20211;-71
2022/03/16 04:11:44;;;;;;;;;;;5.70;99.90;;;;;;5104567;28;20115;-71
2022/03/16 04:14:11;;;;;;;;;;;5.70;99.90;;;;;;5104061;28;19920;-71
2022/03/16 04:16:37;;;;;;;;;;;5.70;99.90;;;;;;5103635;28;19923;-71
2022/03/16 04:19:04;;;;;;;;;;;5.70;99.90;;;;;;5111413;28;19943;-71
2022/03/16 04:21:30;;;;;;;;;;;5.70;99.90;;;;;;5113253;28;19931;-71
2022/03/16 04:23:58;;;;;;;;;;;5.70;99.90;;;;;;5110486;28;19931;-72
2022/03/16 04:26:25;;;;;;;;;;;5.70;99.90;;;;;;5091579;28;19925;-71
2022/03/16 04:28:52;;;;;;;;;;;5.60;99.90;;;;;;5087622;28;19923;-71
2022/03/16 04:31:18;;;;;;;;;;;5.70;99.90;;;;;;5122492;28;19919;-71
2022/03/16 04:33:45;;;;;;;;;;;5.80;99.90;;;;;;5118651;28;19920;-71
2022/03/16 04:36:11;;;;;;;;;;;5.80;99.90;;;;;;5098740;28;19924;-71
2022/03/16 04:38:38;;;;;;;;;;;5.70;99.90;;;;;;5118739;28;19924;-71
2022/03/16 04:41:06;;;;;;;;;;;5.70;99.90;;;;;;5104066;28;19924;-71
2022/03/16 04:43:32;;;;;;;;;;;5.70;99.90;;;;;;5103742;28;19924;-71
2022/03/16 04:45:59;;;;;;;;;;;5.70;99.90;;;;;;5089193;28;19927;-71
2022/03/16 04:48:26;;;;;;;;;;;5.70;99.90;;;;;;5113563;28;19926;-71
2022/03/16 04:50:52;;;;;;;;;;;5.60;99.90;;;;;;5123909;28;19926;-71
2022/03/16 04:53:19;;;;;;;;;;;5.60;99.90;;;;;;5122563;28;19924;-71
2022/03/16 04:55:45;;;;;;;;;;;5.60;99.90;;;;;;5102726;28;19919;-71
2022/03/16 04:58:13;;;;;;;;;;;5.60;99.90;;;;;;5105548;28;19934;-71
2022/03/16 05:00:40;;;;;;;;;;;5.60;99.90;;;;;;5103345;28;19928;-71
2022/03/16 05:03:06;;;;;;;;;;;5.60;99.90;;;;;;5111781;28;19920;-71
2022/03/16 05:05:33;;;;;;;;;;;5.60;99.90;;;;;;5101819;28;19950;-72
2022/03/16 05:08:00;;;;;;;;;;;5.60;99.90;;;;;;5103654;28;19920;-71
2022/03/16 05:10:26;;;;;;;;;;;5.60;99.90;;;;;;5106097;28;19950;-71
2022/03/16 05:12:53;;;;;;;;;;;5.60;99.90;;;;;;5123834;28;19926;-71
2022/03/16 05:15:21;;;;;;;;;;;5.60;99.90;;;;;;5104411;28;19920;-72
2022/03/16 05:17:48;;;;;;;;;;;5.60;99.90;;;;;;5103208;28;19931;-72
2022/03/16 05:20:15;;;;;;;;;;;5.50;99.90;;;;;;5103294;28;19929;-72
2022/03/16 05:22:42;;;;;;;;;;;5.50;99.90;;;;;;5102898;28;19920;-71
2022/03/16 05:25:09;;;;;;;;;;;5.50;99.90;;;;;;5106280;28;19951;-71
2022/03/16 05:27:35;;;;;;;;;;;5.50;99.90;;;;;;5108126;28;19932;-71
2022/03/16 05:30:02;;;;;;;;;;;5.40;99.90;;;;;;5105629;28;19928;-71
2022/03/16 05:32:31;;;;;;;;;;;5.40;99.90;;;;;;5105594;28;19919;-71
2022/03/16 05:34:57;;;;;;;;;;;5.40;99.90;;;;;;5105356;28;19920;-71
2022/03/16 05:37:24;;;;;;;;;;;5.40;99.90;;;;;;5104314;28;19928;-71
2022/03/16 05:39:52;;;;;;;;;;;5.40;99.90;;;;;;5105178;28;19919;-71
2022/03/16 05:42:20;;;;;;;;;;;5.40;99.90;;;;;;5104558;28;19920;-71
2022/03/16 05:44:47;;;;;;;;;;;5.40;99.90;;;;;;5107291;28;20231;-71
2022/03/16 05:47:13;;;;;;;;;;;5.30;99.90;;;;;;5107058;28;20110;-71
2022/03/16 05:49:41;;;;;;;;;;;5.30;99.90;;;;;;5106068;28;19920;-71
2022/03/16 05:52:09;;;;;;;;;;;5.30;99.90;;;;;;5104110;28;19920;-71
2022/03/16 05:54:36;;;;;;;;;;;5.30;99.90;;;;;;5120024;28;20203;-71
2022/03/16 05:57:02;;;;;;;;;;;5.40;99.90;;;;;;5113649;28;19943;-71
2022/03/16 05:59:29;;;;;;;;;;;5.40;99.90;;;;;;5107293;28;19957;-71
2022/03/16 06:01:55;;;;;;;;;;;5.40;99.90;;;;;;5095600;28;20162;-73
2022/03/16 06:04:22;;;;;;;;;;;5.30;99.90;;;;;;5107306;28;19927;-71
2022/03/16 06:06:50;;;;;;;;;;;5.30;99.90;;;;;;5106526;28;19983;-71
2022/03/16 06:09:16;;;;;;;;;;;5.40;99.90;;;;;;5107176;28;19920;-71
2022/03/16 06:11:43;;;;;;;;;;;5.30;99.90;;;;;;5106656;28;19946;-71
2022/03/16 06:14:09;;;;;;;;;;;5.30;99.90;;;;;;5107173;28;19920;-70
2022/03/16 06:16:36;;;;;;;;;;;5.30;99.90;;;;;;5106407;28;19926;-71
2022/03/16 06:19:03;;;;;;;;;;;5.30;99.90;;;;;;5106943;28;20115;-69
2022/03/16 06:21:29;;;;;;;;;;;5.30;99.90;;;;;;5106959;28;19926;-69
2022/03/16 06:23:57;;;;;;;;;;;5.30;99.90;;;;;;5107233;28;19951;-71
2022/03/16 06:26:24;;;;;;;;;;;5.30;99.90;;;;;;5116441;28;19930;-72
2022/03/16 06:28:50;;;;;;;;;;;5.30;99.90;;;;;;5117031;28;19926;-71
2022/03/16 06:31:17;;;;;;;;;;;5.30;99.90;;;;;;5111647;28;20221;-72
2022/03/16 06:33:43;;;;;;;;;;;5.40;99.90;;;;;;5107381;28;19996;-69
2022/03/16 06:36:10;;;;;;;;;;;5.40;99.90;;;;;;5105763;28;19923;-73
2022/03/16 06:38:42;;;;;;;;;;;5.30;99.90;;;;;;5103961;28;19950;-72
2022/03/16 06:41:10;;;;;;;;;;;5.30;99.90;;;;;;5106682;28;19926;-71
2022/03/16 06:43:37;;;;;;;;;;;5.30;99.90;;;;;;5106236;28;19995;-70
2022/03/16 06:46:03;;;;;;;;;;;5.30;99.90;;;;;;5104480;28;19927;-71
2022/03/16 06:48:30;;;;;;;;;;;5.30;99.90;;;;;;5102204;28;19920;-71
2022/03/16 06:50:57;;;;;;;;;;;5.40;99.90;;;;;;5085345;28;19927;-70
2022/03/16 06:53:24;;;;;;;;;;;5.40;99.90;;;;;;5085525;28;19921;-71
2022/03/16 06:55:51;;;;;;;;;;;5.50;99.90;;;;;;5084807;28;19928;-71
2022/03/16 06:58:19;;;;;;;;;;;5.50;99.90;;;;;;5102495;28;19930;-71
2022/03/16 07:00:45;;;;;;;;;;;5.60;99.90;;;;;;5086190;28;19921;-72
2022/03/16 07:03:12;;;;;;;;;;;5.60;99.90;;;;;;5085360;28;19992;-72
2022/03/16 07:05:39;;;;;;;;;;;5.70;99.90;;;;;;5084793;28;19928;-71
2022/03/16 07:08:07;;;;;;;;;;;5.70;99.90;;;;;;5100772;28;19926;-71
2022/03/16 07:10:34;;;;;;;;;;;5.70;99.90;;;;;;5105004;28;19920;-71
2022/03/16 07:13:00;;;;;;;;;;;5.70;99.90;;;;;;5104256;28;19998;-72
2022/03/16 07:15:30;;;;;;;;;;;5.80;99.90;;;;;;5105108;28;19943;-72
2022/03/16 07:17:56;;;;;;;;;;;5.90;99.90;;;;;;5126402;22;19965;-70
2022/03/16 07:20:25;;;;;;;;;;;5.90;99.90;;;;;;5113719;28;20190;-70
2022/03/16 07:23:01;;;;;;;;;;;5.90;99.90;;;;;;5116766;28;19920;-70
2022/03/16 07:25:28;;;;;;;;;;;5.90;99.90;;;;;;5124829;28;20111;-70
2022/03/16 07:27:54;;;;;;;;;;;6.00;99.90;;;;;;5117776;28;20111;-70
2022/03/16 07:30:21;;;;;;;;;;;6.10;99.90;;;;;;5141424;27;19923;-71
2022/03/16 07:32:49;;;;;;;;;;;6.10;99.90;;;;;;5145914;27;19926;-71
2022/03/16 07:35:16;;;;;;;;;;;6.20;99.90;;;;;;5145754;27;19920;-71
2022/03/16 07:37:43;;;;;;;;;;;6.20;99.90;;;;;;5145794;27;19923;-71
2022/03/16 07:40:10;;;;;;;;;;;6.20;99.90;;;;;;5145966;27;19919;-70
2022/03/16 07:42:37;;;;;;;;;;;6.30;99.90;;;;;;5145669;27;19919;-71
2022/03/16 07:45:04;;;;;;;;;;;6.30;99.90;;;;;;5145756;27;19949;-71
2022/03/16 07:47:31;;;;;;;;;;;6.30;99.90;;;;;;5145658;27;19919;-71
2022/03/16 07:49:59;;;;;;;;;;;6.40;99.90;;;;;;5145431;27;19965;-70
2022/03/16 07:52:25;;;;;;;;;;;6.40;99.90;;;;;;5145377;27;19931;-70
2022/03/16 07:54:52;;;;;;;;;;;6.40;99.90;;;;;;5145580;27;19920;-71
2022/03/16 07:57:19;;;;;;;;;;;6.50;99.90;;;;;;5144948;27;19920;-71
2022/03/16 07:59:45;;;;;;;;;;;6.50;99.90;;;;;;5145580;27;19920;-70
2022/03/16 08:02:15;;;;;;;;;;;6.50;99.90;;;;;;5145633;27;20207;-70
2022/03/16 08:04:41;;;;;;;;;;;6.60;99.90;;;;;;5145428;27;19924;-71
2022/03/16 08:07:10;;;;;;;;;;;6.60;99.90;;;;;;5145196;27;19923;-71
2022/03/16 08:09:36;;;;;;;;;;;6.70;99.90;;;;;;5145415;27;19920;-70
2022/03/16 08:12:03;;;;;;;;;;;6.70;99.90;;;;;;5145422;27;19927;-71
2022/03/16 08:14:30;;;;;;;;;;;6.70;99.90;;;;;;5145449;27;19919;-70
2022/03/16 08:16:57;;;;;;;;;;;6.70;99.90;;;;;;5144350;27;19938;-71
2022/03/16 08:19:23;;;;;;;;;;;6.80;99.90;;;;;;5144966;27;19926;-70
2022/03/16 08:21:50;;;;;;;;;;;6.80;99.90;;;;;;5145249;27;20225;-70
2022/03/16 08:24:18;;;;;;;;;;;6.80;99.90;;;;;;5145465;27;19926;-71
2022/03/16 08:26:44;;;;;;;;;;;6.90;99.90;;;;;;5144710;27;20282;-70
2022/03/16 08:29:11;;;;;;;;;;;7.00;99.90;;;;;;5144779;27;19991;-70
2022/03/16 08:31:38;;;;;;;;;;;7.00;99.90;;;;;;5144896;27;19926;-71
2022/03/16 08:34:06;;;;;;;;;;;7.10;99.90;;;;;;5145371;27;20191;-71
2022/03/16 08:36:33;;;;;;;;;;;7.10;99.90;;;;;;5144566;27;19924;-70
2022/03/16 08:39:00;;;;;;;;;;;7.10;99.90;;;;;;5144721;27;19923;-70
2022/03/16 08:41:28;;;;;;;;;;;7.10;99.90;;;;;;5145065;27;19923;-71
2022/03/16 08:43:55;;;;;;;;;;;7.30;99.90;;;;;;5144908;27;20000;-71
2022/03/16 08:46:22;;;;;;;;;;;7.30;99.90;;;;;;5144239;27;19919;-71
2022/03/16 08:48:48;;;;;;;;;;;7.40;99.90;;;;;;5144602;27;19926;-70
2022/03/16 08:51:15;;;;;;;;;;;7.40;99.90;;;;;;5144680;27;19927;-71
2022/03/16 08:53:41;;;;;;;;;;;7.60;99.90;;;;;;5144585;27;20245;-71
2022/03/16 08:56:11;;;;;;;;;;;7.60;99.90;;;;;;5143690;27;19926;-71
2022/03/16 08:58:39;;;;;;;;;;;7.60;99.90;;;;;;5142382;27;19927;-70
2022/03/16 09:01:05;;;;;;;;;;;7.70;99.90;;;;;;5144140;27;20092;-71
2022/03/16 09:03:32;;;;;;;;;;;7.80;99.90;;;;;;5144745;27;19941;-71
2022/03/16 09:06:00;;;;;;;;;;;7.80;99.90;;;;;;5144055;27;19941;-71
2022/03/16 09:08:26;;;;;;;;;;;7.90;99.90;;;;;;5143884;27;20268;-70
2022/03/16 09:10:53;;;;;;;;;;;8.00;99.90;;;;;;5144512;27;19925;-71
2022/03/16 09:13:20;;;;;;;;;;;8.00;99.90;;;;;;5143728;27;20214;-71
2022/03/16 09:15:49;;;;;;;;;;;8.00;99.90;;;;;;5143802;28;19996;-70
2022/03/16 09:18:15;;;;;;;;;;;8.10;99.90;;;;;;5144416;28;19956;-71
2022/03/16 09:20:42;;;;;;;;;;;8.10;99.90;;;;;;5144555;28;19926;-70
2022/03/16 09:23:10;;;;;;;;;;;8.20;99.90;;;;;;5144104;28;19923;-72
2022/03/16 09:25:36;;;;;;;;;;;8.20;99.90;;;;;;5143815;27;20122;-70
2022/03/16 09:28:03;;;;;;;;;;;8.20;99.90;;;;;;5144233;28;19920;-71
2022/03/16 09:30:29;;;;;;;;;;;8.30;99.90;;;;;;5144518;28;20114;-71
2022/03/16 09:32:59;;;;;;;;;;;8.40;99.90;;;;;;5144136;28;19919;-71
2022/03/16 09:35:27;;;;;;;;;;;8.40;99.90;;;;;;5144065;28;20087;-71
2022/03/16 09:37:54;;;;;;;;;;;8.50;99.90;;;;;;5144261;28;19920;-70
2022/03/16 09:40:21;;;;;;;;;;;8.50;99.90;;;;;;5144099;28;19927;-71
2022/03/16 09:42:48;;;;;;;;;;;8.60;99.90;;;;;;5143760;28;19919;-70
2022/03/16 09:45:17;;;;;;;;;;;8.60;99.90;;;;;;5143829;28;19951;-71
2022/03/16 09:47:44;;;;;;;;;;;8.70;99.90;;;;;;5143875;27;19920;-71
2022/03/16 09:50:13;;;;;;;;;;;8.80;99.90;;;;;;5144300;28;19993;-71
2022/03/16 09:52:40;;;;;;;;;;;8.80;99.90;;;;;;5142572;28;19951;-72
2022/03/16 09:55:07;;;;;;;;;;;8.90;99.90;;;;;;5143196;28;19919;-71
2022/03/16 09:57:33;;;;;;;;;;;9.00;99.90;;;;;;5134814;27;19986;-72
2022/03/16 10:00:01;;;;;;;;;;;9.10;99.90;;;;;;5143929;28;19919;-71
2022/03/16 10:02:27;;;;;;;;;;;9.10;99.90;;;;;;5143844;28;20130;-71
2022/03/16 10:04:55;;;;;;;;;;;9.20;99.90;;;;;;5144299;28;19920;-71
2022/03/16 10:07:29;;;;;;;;;;;9.30;99.90;;;;;;5143390;28;19920;-70
2022/03/16 10:15:24;;;;;;;;;;;9.60;99.90;;;;;;5143392;28;19983;-71
2022/03/16 10:17:59;;;;;;;;;;;9.80;99.90;;;;;;5143862;27;19919;-71
2022/03/16 10:20:28;;;;;;;;;;;9.80;99.90;;;;;;5141836;27;19931;-71
2022/03/16 10:22:57;;;;;;;;;;;9.90;99.90;;;;;;5148011;27;19964;-72
2022/03/16 10:25:24;;;;;;;;;;;9.90;99.90;;;;;;5146682;27;19927;-71
2022/03/16 10:27:50;;;;;;;;;;;10.00;99.90;;;;;;5147202;27;19926;-71
2022/03/16 10:30:20;;;;;;;;;;;10.10;99.90;;;;;;5147301;27;19919;-71
2022/03/16 10:32:54;;;;;;;;;;;10.20;99.90;;;;;;5147198;27;19970;-71
2022/03/16 10:35:21;;;;;;;;;;;10.20;99.90;;;;;;5144849;27;19925;-72
2022/03/16 10:37:48;;;;;;;;;;;10.30;99.90;;;;;;5147146;27;20256;-71
2022/03/16 10:40:19;;;;;;;;;;;10.30;99.90;;;;;;5146933;27;19919;-70
2022/03/16 10:48:15;;;;;;;;;;;10.40;99.90;;;;;;5146167;27;19922;-71
2022/03/16 10:50:42;;;;;;;;;;;10.50;99.90;;;;;;5146943;27;19926;-70
2022/03/16 10:53:09;;;;;;;;;;;10.50;99.90;;;;;;5146877;27;19919;-72
2022/03/16 10:55:37;;;;;;;;;;;10.60;99.90;;;;;;5146544;27;20126;-71
2022/03/16 10:58:06;;;;;;;;;;;10.60;99.90;;;;;;5147087;27;19920;-71
2022/03/16 11:00:33;;;;;;;;;;;10.80;99.90;;;;;;5146333;27;19931;-71
2022/03/16 11:03:01;;;;;;;;;;;10.80;99.90;;;;;;5146160;27;19919;-71
2022/03/16 11:05:28;;;;;;;;;;;10.90;99.90;;;;;;5146071;27;19920;-70
2022/03/16 11:07:55;;;;;;;;;;;11.00;99.90;;;;;;5146536;27;19919;-70
2022/03/16 11:10:21;;;;;;;;;;;11.10;99.90;;;;;;5147105;27;19925;-70
2022/03/16 11:15:46;;;;;;;;;;;11.30;99.90;;;;;;5083118;28;20242;-70
2022/03/16 11:18:13;;;;;;;;;;;11.60;99.90;;;;;;5131662;27;19920;-70
2022/03/16 11:20:39;;;;;;;;;;;11.70;99.90;;;;;;5143859;27;19979;-71
2022/03/16 11:25:59;;;;;;;;;;;12.00;99.90;;;;;;5145932;27;19957;-71
2022/03/16 11:28:45;;;;;;;;;;;12.20;99.90;;;;;;5144041;27;19920;-70
2022/03/16 11:31:14;;;;;;;;;;;12.40;99.90;;;;;;5145987;27;19919;-71
2022/03/16 11:33:50;;;;;;;;;;;12.60;99.90;;;;;;5146642;27;20068;-70
2022/03/16 11:36:30;;;;;;;;;;;12.70;99.90;;;;;;5145816;27;19926;-70
2022/03/16 11:38:57;;;;;;;;;;;12.80;99.90;;;;;;5146358;27;19936;-70
2022/03/16 11:41:25;;;;;;;;;;;12.90;99.90;;;;;;5146147;27;19919;-70
2022/03/16 11:43:57;;;;;;;;;;;13.00;99.90;;;;;;5146653;27;19930;-70
2022/03/16 11:46:29;;;;;;;;;;;13.10;99.90;;;;;;5145968;27;19919;-70
2022/03/16 11:48:56;;;;;;;;;;;13.30;99.90;;;;;;5146022;27;19919;-71
2022/03/16 11:51:24;;;;;;;;;;;13.50;99.90;;;;;;5146373;27;20160;-71
2022/03/16 11:54:06;;;;;;;;;;;13.60;99.90;;;;;;5145969;27;20203;-70
2022/03/16 11:56:46;;;;;;;;;;;13.70;99.90;;;;;;5145481;27;19919;-70
2022/03/16 11:59:29;;;;;;;;;;;13.90;99.90;;;;;;5145779;27;19927;-69
2022/03/16 12:02:05;;;;;;;;;;;14.10;99.90;;;;;;5145890;27;19923;-72
2022/03/16 12:04:32;;;;;;;;;;;14.20;99.90;;;;;;5145726;27;19925;-69
2022/03/16 12:07:02;;;;;;;;;;;14.00;99.90;;;;;;5145204;27;19919;-70
2022/03/16 12:09:34;;;;;;;;;;;13.90;99.90;;;;;;5145731;27;19926;-73
2022/03/16 12:14:59;;;;;;;;;;;13.90;99.90;;;;;;5145791;27;19927;-71
2022/03/16 12:17:27;;;;;;;;;;;14.10;99.90;;;;;;5144949;27;19925;-70
2022/03/16 12:20:07;;;;;;;;;;;14.30;99.90;;;;;;5145238;27;19941;-71
2022/03/16 12:22:37;;;;;;;;;;;14.40;99.90;;;;;;5143226;27;19919;-71
2022/03/16 12:25:25;;;;;;;;;;;14.50;99.90;;;;;;5152388;27;19940;-70
2022/03/16 12:30:38;;;;;;;;;;;14.60;99.90;;;;;;5145007;27;19953;-70
2022/03/16 12:33:06;;;;;;;;;;;14.60;99.90;;;;;;5144678;27;19920;-71
2022/03/16 12:35:34;;;;;;;;;;;14.80;99.90;;;;;;5144573;27;19934;-70
2022/03/16 12:38:01;;;;;;;;;;;15.00;99.90;;;;;;5124147;28;20200;-70
2022/03/16 12:40:29;;;;;;;;;;;15.20;99.90;;;;;;5127903;27;19982;-70
2022/03/16 12:42:56;;;;;;;;;;;15.30;99.90;;;;;;5144598;27;20178;-70
2022/03/16 12:45:25;;;;;;;;;;;15.30;99.90;;;;;;5143380;27;19923;-70
2022/03/16 12:47:57;;;;;;;;;;;15.00;99.90;;;;;;5144793;27;20069;-69
2022/03/16 12:50:27;;;;;;;;;;;14.70;99.90;;;;;;5144638;27;19923;-70
2022/03/16 12:52:54;;;;;;;;;;;14.90;99.90;;;;;;5144845;27;19923;-72
2022/03/16 12:55:21;;;;;;;;;;;14.90;99.90;;;;;;5143795;27;19927;-70
2022/03/16 12:57:51;;;;;;;;;;;15.00;99.90;;;;;;5144843;27;19919;-70
2022/03/16 13:00:17;;;;;;;;;;;15.10;99.90;;;;;;5144570;27;19923;-70
2022/03/16 13:02:44;;;;;;;;;;;15.30;99.90;;;;;;5144436;27;19931;-70
2022/03/16 13:05:11;;;;;;;;;;;15.30;99.90;;;;;;5144365;27;19919;-72
2022/03/16 13:07:39;;;;;;;;;;;15.40;99.90;;;;;;5143612;27;19980;-71
2022/03/16 13:10:07;;;;;;;;;;;15.60;99.90;;;;;;5143992;27;19923;-71
2022/03/16 13:12:33;;;;;;;;;;;15.90;99.90;;;;;;5144688;27;19927;-70
2022/03/16 13:15:00;;;;;;;;;;;16.10;99.90;;;;;;5144142;27;19920;-70
2022/03/16 13:17:34;;;;;;;;;;;16.20;99.90;;;;;;5143585;28;19923;-72
2022/03/16 13:20:03;;;;;;;;;;;16.40;99.90;;;;;;5144779;28;20126;-71
2022/03/16 13:22:30;;;;;;;;;;;16.50;99.90;;;;;;5144453;28;19919;-70
2022/03/16 13:24:58;;;;;;;;;;;16.70;99.90;;;;;;5143824;27;19919;-70
2022/03/16 13:27:29;;;;;;;;;;;16.90;99.90;;;;;;5143534;28;19919;-71
2022/03/16 13:29:57;;;;;;;;;;;17.10;99.90;;;;;;5144757;28;19935;-70
2022/03/16 13:32:27;;;;;;;;;;;17.10;99.90;;;;;;5144512;28;20210;-70
2022/03/16 13:34:54;;;;;;;;;;;16.80;99.90;;;;;;5144820;28;19919;-69
2022/03/16 13:37:22;;;;;;;;;;;16.40;99.90;;;;;;5143880;27;19927;-70
2022/03/16 13:40:02;;;;;;;;;;;16.40;99.90;;;;;;5143518;28;19920;-70
2022/03/16 13:42:29;;;;;;;;;;;16.60;99.90;;;;;;5129752;28;19926;-70
2022/03/16 13:45:10;;;;;;;;;;;16.70;99.90;;;;;;5144180;28;19926;-70
2022/03/16 13:47:37;;;;;;;;;;;16.60;99.90;;;;;;5143793;27;20122;-70
2022/03/16 13:50:04;;;;;;;;;;;16.40;99.90;;;;;;5143739;28;19919;-69
2022/03/16 13:52:40;;;;;;;;;;;16.30;99.90;;;;;;5143797;28;20261;-73
2022/03/16 13:55:11;;;;;;;;;;;16.00;99.90;;;;;;5145227;27;19919;-69
2022/03/16 13:57:41;;;;;;;;;;;15.70;99.90;;;;;;5147451;27;19919;-71
2022/03/16 14:00:09;;;;;;;;;;;15.40;99.90;;;;;;5148114;27;19920;-71
2022/03/16 14:02:36;;;;;;;;;;;15.30;99.90;;;;;;5148284;27;20179;-71
2022/03/16 14:05:04;;;;;;;;;;;15.40;99.90;;;;;;5147711;27;19986;-70
2022/03/16 14:07:33;;;;;;;;;;;15.50;99.90;;;;;;5147344;27;19955;-70
2022/03/16 14:10:01;;;;;;;;;;;15.60;99.90;;;;;;5147889;27;19919;-71
2022/03/16 14:12:34;;;;;;;;;;;15.80;99.90;;;;;;5147944;27;19919;-70
2022/03/16 14:15:03;;;;;;;;;;;15.90;99.90;;;;;;5147490;27;19989;-74
2022/03/16 14:17:40;;;;;;;;;;;15.60;99.90;;;;;;5146699;27;19920;-70
2022/03/16 14:20:08;;;;;;;;;;;15.40;99.90;;;;;;5147442;27;19925;-70
2022/03/16 14:22:35;;;;;;;;;;;15.30;99.90;;;;;;5146243;27;19920;-71
2022/03/16 14:25:11;;;;;;;;;;;15.10;99.90;;;;;;5147114;27;19919;-70
2022/03/16 14:27:39;;;;;;;;;;;14.80;99.90;;;;;;5147451;27;19920;-70
2022/03/16 14:30:06;;;;;;;;;;;14.80;99.90;;;;;;5147141;27;19919;-70
2022/03/16 14:32:33;;;;;;;;;;;14.40;99.90;;;;;;5135407;27;19935;-71
2022/03/16 14:34:59;;;;;;;;;;;14.10;99.90;;;;;;5141207;27;19958;-70
2022/03/16 14:37:26;;;;;;;;;;;13.90;99.90;;;;;;5146658;27;19926;-70
2022/03/16 14:39:52;;;;;;;;;;;13.90;99.90;;;;;;5146315;27;19927;-70
2022/03/16 14:42:19;;;;;;;;;;;13.90;99.90;;;;;;5147110;27;19935;-71
2022/03/16 14:44:47;;;;;;;;;;;13.90;99.90;;;;;;5146997;27;19919;-70
2022/03/16 14:47:14;;;;;;;;;;;13.90;99.90;;;;;;5146476;27;19923;-70
2022/03/16 14:49:40;;;;;;;;;;;14.00;99.90;;;;;;5146635;27;19920;-70
2022/03/16 14:52:08;;;;;;;;;;;14.00;99.90;;;;;;5147159;27;19924;-70